Time,TemperatureF,DewpointF,PressureIn,WindDirection,WindDirectionDegrees,WindSpeedMPH,WindSpeedGustMPH,Humidity,HourlyPrecipIn,Conditions,Clouds,dailyrainin,SoftwareType,DateUTC
2013-12-01 00:00:00,34.4,28.0,30.32,SW,226,0.0,0.0,77,0.00,,---,0.00,VWS V14.01,2013-12-01 05:00:00,
2013-12-01 00:01:00,34.3,27.9,30.33,SW,226,0.0,0.0,77,0.00,,---,0.00,VWS V14.01,2013-12-01 05:01:00,
2013-12-01 00:05:00,36.3,28.5,30.32,SW,226,0.0,0.0,73,0.00,,---,0.00,VWS V14.01,2013-12-01 05:05:00,
2013-12-01 00:06:00,34.0,28.2,30.33,SW,226,0.0,0.0,79,0.00,,---,0.00,VWS V14.01,2013-12-01 05:06:00,
2013-12-01 00:10:00,36.3,28.5,30.32,SW,226,0.0,0.0,73,0.00,,---,0.00,VWS V14.01,2013-12-01 05:10:00,
2013-12-01 00:11:00,33.7,27.9,30.32,SW,226,0.0,0.0,79,0.00,,---,0.00,VWS V14.01,2013-12-01 05:11:00,
2013-12-01 00:15:00,36.0,28.9,30.32,SW,226,0.0,0.0,75,0.00,,---,0.00,VWS V14.01,2013-12-01 05:15:00,
2013-12-01 00:16:00,33.3,27.5,30.33,SW,226,0.0,0.0,79,0.00,,---,0.00,VWS V14.01,2013-12-01 05:16:00,
2013-12-01 00:20:00,35.9,28.4,30.32,SW,226,0.0,0.0,74,0.00,,---,0.00,VWS V14.01,2013-12-01 05:20:00,
2013-12-01 00:21:00,33.2,27.7,30.33,SW,226,0.0,0.0,80,0.00,,---,0.00,VWS V14.01,2013-12-01 05:21:00,
2013-12-01 00:25:00,35.9,28.8,30.32,SW,226,0.0,0.0,75,0.00,,---,0.00,VWS V14.01,2013-12-01 05:25:00,
2013-12-01 00:26:00,33.5,28.0,30.32,SW,226,0.0,0.0,80,0.00,,---,0.00,VWS V14.01,2013-12-01 05:26:00,
2013-12-01 00:31:00,33.4,27.6,30.32,SW,226,0.0,0.0,79,0.00,,---,0.00,VWS V14.01,2013-12-01 05:31:00,
2013-12-01 00:35:00,35.7,28.6,30.32,SW,226,0.0,0.0,75,0.00,,---,0.00,VWS V14.01,2013-12-01 05:35:00,
2013-12-01 00:36:00,32.8,27.3,30.32,SW,225,0.0,0.0,80,0.00,,---,0.00,VWS V14.01,2013-12-01 05:36:00,
2013-12-01 00:40:00,35.3,28.8,30.32,SW,225,0.0,0.0,77,0.00,,---,0.00,VWS V14.01,2013-12-01 05:40:00,
2013-12-01 00:41:00,32.4,26.9,30.32,SW,226,0.0,0.0,80,0.00,,---,0.00,VWS V14.01,2013-12-01 05:41:00,
2013-12-01 00:45:00,35.1,28.3,30.32,SW,226,0.0,0.0,76,0.00,,---,0.00,VWS V14.01,2013-12-01 05:45:00,
2013-12-01 00:46:00,32.1,27.2,30.32,SW,226,0.0,0.0,82,0.00,,---,0.00,VWS V14.01,2013-12-01 05:46:00,
2013-12-01 00:47:00,32.1,27.2,30.32,SW,226,0.0,0.0,82,0.00,,---,0.00,VWS V14.01,2013-12-01 05:47:00,
2013-12-01 00:48:00,32.1,27.2,30.32,SW,226,0.0,0.0,82,0.00,,---,0.00,VWS V14.01,2013-12-01 05:48:00,
2013-12-01 00:53:00,32.4,27.2,30.31,SW,226,0.0,0.0,81,0.00,,---,0.00,VWS V14.01,2013-12-01 05:53:00,
2013-12-01 00:55:00,32.5,27.6,30.31,SW,226,0.0,0.0,82,0.00,,---,0.00,VWS V14.01,2013-12-01 05:55:00,
2013-12-01 01:00:00,33.0,27.8,30.31,SW,226,0.0,0.0,81,0.00,,---,0.00,VWS V14.01,2013-12-01 06:00:00,
2013-12-01 01:05:00,32.8,27.6,30.31,SW,226,0.0,0.0,81,0.00,,---,0.00,VWS V14.01,2013-12-01 06:05:00,
2013-12-01 01:10:00,32.6,27.4,30.31,SW,226,0.0,0.0,81,0.00,,---,0.00,VWS V14.01,2013-12-01 06:10:00,
2013-12-01 01:15:00,32.3,27.4,30.31,SW,226,0.0,0.0,82,0.00,,---,0.00,VWS V14.01,2013-12-01 06:15:00,
2013-12-01 01:20:00,32.0,27.4,30.31,SW,226,0.0,0.0,83,0.00,,---,0.00,VWS V14.01,2013-12-01 06:20:00,
2013-12-01 01:25:00,31.8,27.2,30.30,SW,226,0.0,0.0,83,0.00,,---,0.00,VWS V14.01,2013-12-01 06:25:00,
2013-12-01 01:30:00,31.7,27.4,30.31,SW,226,0.0,0.0,84,0.00,,---,0.00,VWS V14.01,2013-12-01 06:30:00,
2013-12-01 01:35:00,31.7,27.4,30.30,SW,226,0.0,0.0,84,0.00,,---,0.00,VWS V14.01,2013-12-01 06:35:00,
2013-12-01 01:40:00,31.7,27.4,30.30,SW,226,0.0,0.0,84,0.00,,---,0.00,VWS V14.01,2013-12-01 06:40:00,
2013-12-01 01:45:00,31.7,27.4,30.30,SW,225,0.0,0.0,84,0.00,,---,0.00,VWS V14.01,2013-12-01 06:45:00,
2013-12-01 01:50:00,31.6,27.3,30.30,SW,226,0.0,0.0,84,0.00,,---,0.00,VWS V14.01,2013-12-01 06:50:00,
2013-12-01 01:55:00,31.4,27.4,30.30,SW,225,0.0,0.0,85,0.00,,---,0.00,VWS V14.01,2013-12-01 06:55:00,
2013-12-01 02:00:00,31.6,27.6,30.30,SW,225,0.0,0.0,85,0.00,,---,0.00,VWS V14.01,2013-12-01 07:00:00,
2013-12-01 02:05:00,31.6,27.3,30.30,SW,225,0.0,0.0,84,0.00,,---,0.00,VWS V14.01,2013-12-01 07:05:00,
2013-12-01 02:10:00,31.3,27.3,30.30,SW,225,0.0,0.0,85,0.00,,---,0.00,VWS V14.01,2013-12-01 07:10:00,
2013-12-01 02:15:00,31.2,27.2,30.30,SW,226,0.0,0.0,85,0.00,,---,0.00,VWS V14.01,2013-12-01 07:15:00,
2013-12-01 02:20:00,31.7,27.4,30.30,WSW,238,0.0,0.0,84,0.00,,---,0.00,VWS V14.01,2013-12-01 07:20:00,
2013-12-01 02:25:00,32.1,27.5,30.29,WSW,243,0.0,0.0,83,0.00,,---,0.00,VWS V14.01,2013-12-01 07:25:00,
2013-12-01 02:30:00,31.8,27.5,30.30,WSW,243,0.0,0.0,84,0.00,,---,0.00,VWS V14.01,2013-12-01 07:30:00,
2013-12-01 02:35:00,31.5,27.5,30.29,WSW,243,0.0,0.0,85,0.00,,---,0.00,VWS V14.01,2013-12-01 07:35:00,
2013-12-01 02:40:00,31.0,27.0,30.29,WSW,243,0.0,0.0,85,0.00,,---,0.00,VWS V14.01,2013-12-01 07:40:00,
2013-12-01 02:45:00,31.3,27.3,30.29,WSW,240,0.0,0.0,85,0.00,,---,0.00,VWS V14.01,2013-12-01 07:45:00,
2013-12-01 02:50:00,31.4,27.1,30.29,WSW,240,0.0,0.0,84,0.00,,---,0.00,VWS V14.01,2013-12-01 07:50:00,
2013-12-01 02:55:00,31.6,27.3,30.29,WSW,240,0.0,0.0,84,0.00,,---,0.00,VWS V14.01,2013-12-01 07:55:00,
2013-12-01 03:00:00,31.6,27.0,30.29,WSW,240,0.0,0.0,83,0.00,,---,0.00,VWS V14.01,2013-12-01 08:00:00,
2013-12-01 03:05:00,31.4,27.1,30.30,WSW,240,0.0,0.0,84,0.00,,---,0.00,VWS V14.01,2013-12-01 08:05:00,
2013-12-01 03:10:00,31.3,27.0,30.30,SW,226,0.0,0.0,84,0.00,,---,0.00,VWS V14.01,2013-12-01 08:10:00,
2013-12-01 03:11:00,31.4,27.1,30.29,WSW,240,0.0,0.0,84,0.00,,---,0.00,VWS V14.01,2013-12-01 08:11:00,
2013-12-01 03:15:00,31.2,27.2,30.30,SW,225,0.0,0.0,85,0.00,,---,0.00,VWS V14.01,2013-12-01 08:15:00,
2013-12-01 03:16:00,31.4,27.1,30.29,WSW,240,0.0,0.0,84,0.00,,---,0.00,VWS V14.01,2013-12-01 08:16:00,
2013-12-01 03:20:00,31.6,27.3,30.30,SW,226,0.0,1.0,84,0.00,,---,0.00,VWS V14.01,2013-12-01 08:20:00,
2013-12-01 03:21:00,31.6,27.0,30.29,WSW,240,0.0,0.0,83,0.00,,---,0.00,VWS V14.01,2013-12-01 08:21:00,
2013-12-01 03:25:00,32.0,27.4,30.30,WSW,243,0.0,0.0,83,0.00,,---,0.00,VWS V14.01,2013-12-01 08:25:00,
2013-12-01 03:26:00,31.4,27.1,30.29,WSW,240,0.0,0.0,84,0.00,,---,0.00,VWS V14.01,2013-12-01 08:26:00,
2013-12-01 03:30:00,31.8,27.5,30.30,WSW,243,0.0,0.0,84,0.00,,---,0.00,VWS V14.01,2013-12-01 08:30:00,
2013-12-01 03:31:00,31.4,27.1,30.29,WSW,243,0.0,0.0,84,0.00,,---,0.00,VWS V14.01,2013-12-01 08:31:00,
2013-12-01 03:35:00,31.6,27.6,30.29,WSW,243,0.0,0.0,85,0.00,,---,0.00,VWS V14.01,2013-12-01 08:35:00,
2013-12-01 03:36:00,31.8,27.2,30.30,WSW,243,0.0,0.0,83,0.00,,---,0.00,VWS V14.01,2013-12-01 08:36:00,
2013-12-01 03:40:00,31.1,27.1,30.29,WSW,243,0.0,0.0,85,0.00,,---,0.00,VWS V14.01,2013-12-01 08:40:00,
2013-12-01 03:41:00,31.9,27.0,30.29,WSW,243,0.0,0.0,82,0.00,,---,0.00,VWS V14.01,2013-12-01 08:41:00,
2013-12-01 03:45:00,31.2,27.2,30.29,WSW,240,0.0,0.0,85,0.00,,---,0.00,VWS V14.01,2013-12-01 08:45:00,
2013-12-01 03:46:00,31.7,27.1,30.29,WSW,243,0.0,0.0,83,0.00,,---,0.00,VWS V14.01,2013-12-01 08:46:00,
2013-12-01 03:50:00,31.4,27.1,30.29,WSW,240,0.0,0.0,84,0.00,,---,0.00,VWS V14.01,2013-12-01 08:50:00,
2013-12-01 03:51:00,31.5,26.9,30.29,WSW,243,0.0,0.0,83,0.00,,---,0.00,VWS V14.01,2013-12-01 08:51:00,
2013-12-01 03:55:00,31.5,27.2,30.29,WSW,240,0.0,0.0,84,0.00,,---,0.00,VWS V14.01,2013-12-01 08:55:00,
2013-12-01 03:56:00,31.2,26.9,30.29,WSW,243,0.0,0.0,84,0.00,,---,0.00,VWS V14.01,2013-12-01 08:56:00,
2013-12-01 04:00:00,31.6,27.0,30.29,WSW,240,0.0,0.0,83,0.00,,---,0.00,VWS V14.01,2013-12-01 09:00:00,
2013-12-01 04:01:00,30.8,26.5,30.29,WSW,243,0.0,0.0,84,0.00,,---,0.00,VWS V14.01,2013-12-01 09:01:00,
2013-12-01 04:05:00,31.5,27.2,30.30,WSW,240,0.0,0.0,84,0.00,,---,0.00,VWS V14.01,2013-12-01 09:05:00,
2013-12-01 04:06:00,30.5,26.5,30.29,WSW,243,0.0,0.0,85,0.00,,---,0.00,VWS V14.01,2013-12-01 09:06:00,
2013-12-01 04:10:00,31.4,27.1,30.29,WSW,240,0.0,0.0,84,0.00,,---,0.00,VWS V14.01,2013-12-01 09:10:00,
2013-12-01 04:11:00,30.3,26.6,30.28,WSW,243,0.0,0.0,86,0.00,,---,0.00,VWS V14.01,2013-12-01 09:11:00,
2013-12-01 04:15:00,31.4,26.8,30.29,WSW,240,0.0,0.0,83,0.00,,---,0.00,VWS V14.01,2013-12-01 09:15:00,
2013-12-01 04:16:00,30.0,26.6,30.28,WSW,243,0.0,0.0,87,0.00,,---,0.00,VWS V14.01,2013-12-01 09:16:00,
2013-12-01 04:20:00,31.6,27.0,30.29,WSW,240,0.0,0.0,83,0.00,,---,0.00,VWS V14.01,2013-12-01 09:20:00,
2013-12-01 04:21:00,29.6,26.5,30.28,WSW,243,0.0,0.0,88,0.00,,---,0.00,VWS V14.01,2013-12-01 09:21:00,
2013-12-01 04:25:00,31.4,26.8,30.29,WSW,240,0.0,0.0,83,0.00,,---,0.00,VWS V14.01,2013-12-01 09:25:00,
2013-12-01 04:26:00,29.1,26.0,30.28,WSW,243,0.0,0.0,88,0.00,,---,0.00,VWS V14.01,2013-12-01 09:26:00,
2013-12-01 04:30:00,31.4,27.1,30.29,WSW,240,0.0,0.0,84,0.00,,---,0.00,VWS V14.01,2013-12-01 09:30:00,
2013-12-01 04:31:00,28.9,26.3,30.28,WSW,243,0.0,0.0,90,0.00,,---,0.00,VWS V14.01,2013-12-01 09:31:00,
2013-12-01 04:35:00,31.7,27.1,30.30,WSW,240,0.0,0.0,83,0.00,,---,0.00,VWS V14.01,2013-12-01 09:35:00,
2013-12-01 04:36:00,28.6,25.8,30.28,WSW,243,0.0,0.0,89,0.00,,---,0.00,VWS V14.01,2013-12-01 09:36:00,
2013-12-01 04:40:00,31.9,27.0,30.29,WSW,243,0.0,0.0,82,0.00,,---,0.00,VWS V14.01,2013-12-01 09:40:00,
2013-12-01 04:41:00,28.1,25.3,30.28,WSW,243,0.0,0.0,89,0.00,,---,0.00,VWS V14.01,2013-12-01 09:41:00,
2013-12-01 04:45:00,31.8,26.9,30.29,WSW,243,0.0,0.0,82,0.00,,---,0.00,VWS V14.01,2013-12-01 09:45:00,
2013-12-01 04:46:00,28.0,25.7,30.28,WSW,243,0.0,0.0,91,0.00,,---,0.00,VWS V14.01,2013-12-01 09:46:00,
2013-12-01 04:50:00,31.6,27.0,30.29,WSW,243,0.0,0.0,83,0.00,,---,0.00,VWS V14.01,2013-12-01 09:50:00,
2013-12-01 04:51:00,28.6,26.3,30.28,WSW,243,0.0,0.0,91,0.00,,---,0.00,VWS V14.01,2013-12-01 09:51:00,
2013-12-01 04:55:00,31.3,26.8,30.29,WSW,243,0.0,0.0,83,0.00,,---,0.00,VWS V14.01,2013-12-01 09:55:00,
2013-12-01 04:56:00,29.0,26.2,30.28,WSW,243,0.0,0.0,89,0.00,,---,0.00,VWS V14.01,2013-12-01 09:56:00,
2013-12-01 05:00:00,30.9,26.6,30.29,WSW,243,0.0,0.0,84,0.00,,---,0.00,VWS V14.01,2013-12-01 10:00:00,
2013-12-01 05:01:00,28.9,26.1,30.28,WSW,243,0.0,0.0,89,0.00,,---,0.00,VWS V14.01,2013-12-01 10:01:00,
2013-12-01 05:05:00,30.5,26.5,30.29,WSW,243,0.0,0.0,85,0.00,,---,0.00,VWS V14.01,2013-12-01 10:05:00,
2013-12-01 05:06:00,29.0,26.2,30.28,WSW,243,0.0,0.0,89,0.00,,---,0.00,VWS V14.01,2013-12-01 10:06:00,
2013-12-01 05:10:00,30.4,26.4,30.28,WSW,243,0.0,0.0,85,0.00,,---,0.00,VWS V14.01,2013-12-01 10:10:00,
2013-12-01 05:11:00,29.1,26.3,30.28,WSW,243,0.0,0.0,89,0.00,,---,0.00,VWS V14.01,2013-12-01 10:11:00,
2013-12-01 05:15:00,30.1,26.4,30.28,WSW,243,0.0,0.0,86,0.00,,---,0.00,VWS V14.01,2013-12-01 10:15:00,
2013-12-01 05:16:00,29.6,26.8,30.28,WSW,243,0.0,0.0,89,0.00,,---,0.00,VWS V14.01,2013-12-01 10:16:00,
2013-12-01 05:20:00,29.8,26.7,30.28,WSW,243,0.0,0.0,88,0.00,,---,0.00,VWS V14.01,2013-12-01 10:20:00,
2013-12-01 05:21:00,29.5,26.4,30.28,WSW,243,0.0,0.0,88,0.00,,---,0.00,VWS V14.01,2013-12-01 10:21:00,
2013-12-01 05:25:00,29.3,26.2,30.28,WSW,243,0.0,0.0,88,0.00,,---,0.00,VWS V14.01,2013-12-01 10:25:00,
2013-12-01 05:27:00,29.0,25.9,30.28,WSW,243,0.0,0.0,88,0.00,,---,0.00,VWS V14.01,2013-12-01 10:27:00,
2013-12-01 05:30:00,29.0,26.4,30.28,WSW,243,0.0,0.0,90,0.00,,---,0.00,VWS V14.01,2013-12-01 10:30:00,
2013-12-01 05:32:00,28.5,25.7,30.28,WSW,243,0.0,0.0,89,0.00,,---,0.00,VWS V14.01,2013-12-01 10:32:00,
2013-12-01 05:37:00,28.1,25.5,30.28,WSW,243,0.0,0.0,90,0.00,,---,0.00,VWS V14.01,2013-12-01 10:37:00,
2013-12-01 05:40:00,28.3,25.5,30.28,WSW,243,0.0,0.0,89,0.00,,---,0.00,VWS V14.01,2013-12-01 10:40:00,
2013-12-01 05:42:00,27.8,25.5,30.28,WSW,243,0.0,0.0,91,0.00,,---,0.00,VWS V14.01,2013-12-01 10:42:00,
2013-12-01 05:45:00,28.0,25.7,30.28,WSW,243,0.0,0.0,91,0.00,,---,0.00,VWS V14.01,2013-12-01 10:45:00,
2013-12-01 05:47:00,27.5,25.2,30.27,WSW,243,0.0,0.0,91,0.00,,---,0.00,VWS V14.01,2013-12-01 10:47:00,
2013-12-01 05:50:00,28.2,26.2,30.28,WSW,243,0.0,0.0,92,0.00,,---,0.00,VWS V14.01,2013-12-01 10:50:00,
2013-12-01 05:52:00,27.8,25.8,30.28,WSW,243,0.0,0.0,92,0.00,,---,0.00,VWS V14.01,2013-12-01 10:52:00,
2013-12-01 05:55:00,29.0,26.4,30.28,WSW,243,0.0,0.0,90,0.00,,---,0.00,VWS V14.01,2013-12-01 10:55:00,
2013-12-01 05:57:00,28.3,26.0,30.28,WSW,243,0.0,0.0,91,0.00,,---,0.00,VWS V14.01,2013-12-01 10:57:00,
2013-12-01 06:00:00,29.0,26.2,30.28,WSW,243,0.0,0.0,89,0.00,,---,0.00,VWS V14.01,2013-12-01 11:00:00,
2013-12-01 06:02:00,28.2,25.9,30.27,WSW,243,0.0,0.0,91,0.00,,---,0.00,VWS V14.01,2013-12-01 11:02:00,
2013-12-01 06:05:00,28.9,26.1,30.28,WSW,243,0.0,0.0,89,0.00,,---,0.00,VWS V14.01,2013-12-01 11:05:00,
2013-12-01 06:07:00,28.0,26.0,30.28,WSW,243,0.0,0.0,92,0.00,,---,0.00,VWS V14.01,2013-12-01 11:07:00,
2013-12-01 06:10:00,29.1,26.3,30.28,WSW,243,0.0,0.0,89,0.00,,---,0.00,VWS V14.01,2013-12-01 11:10:00,
2013-12-01 06:12:00,28.0,26.0,30.28,WSW,243,0.0,0.0,92,0.00,,---,0.00,VWS V14.01,2013-12-01 11:12:00,
2013-12-01 06:15:00,29.4,26.6,30.28,WSW,243,0.0,0.0,89,0.00,,---,0.00,VWS V14.01,2013-12-01 11:15:00,
2013-12-01 06:17:00,27.8,26.0,30.28,WSW,243,0.0,0.0,93,0.00,,---,0.00,VWS V14.01,2013-12-01 11:17:00,
2013-12-01 06:20:00,29.6,26.5,30.28,WSW,243,0.0,0.0,88,0.00,,---,0.00,VWS V14.01,2013-12-01 11:20:00,
2013-12-01 06:22:00,27.7,25.9,30.27,WSW,243,0.0,0.0,93,0.00,,---,0.00,VWS V14.01,2013-12-01 11:22:00,
2013-12-01 06:25:00,29.2,26.1,30.28,WSW,243,0.0,0.0,88,0.00,,---,0.00,VWS V14.01,2013-12-01 11:25:00,
2013-12-01 06:27:00,27.6,25.8,30.28,WSW,243,0.0,0.0,93,0.00,,---,0.00,VWS V14.01,2013-12-01 11:27:00,
2013-12-01 06:30:00,28.7,25.6,30.28,WSW,243,0.0,0.0,88,0.00,,---,0.00,VWS V14.01,2013-12-01 11:30:00,
2013-12-01 06:32:00,27.5,25.8,30.27,WSW,243,0.0,0.0,93,0.00,,---,0.00,VWS V14.01,2013-12-01 11:32:00,
2013-12-01 06:35:00,28.3,25.5,30.28,WSW,243,0.0,0.0,89,0.00,,---,0.00,VWS V14.01,2013-12-01 11:35:00,
2013-12-01 06:37:00,27.3,25.5,30.27,WSW,243,0.0,0.0,93,0.00,,---,0.00,VWS V14.01,2013-12-01 11:37:00,
2013-12-01 06:40:00,28.0,25.5,30.28,WSW,243,0.0,0.0,90,0.00,,---,0.00,VWS V14.01,2013-12-01 11:40:00,
2013-12-01 06:42:00,27.3,25.5,30.27,WSW,243,0.0,0.0,93,0.00,,---,0.00,VWS V14.01,2013-12-01 11:42:00,
2013-12-01 06:45:00,27.7,25.4,30.27,WSW,243,0.0,0.0,91,0.00,,---,0.00,VWS V14.01,2013-12-01 11:45:00,
2013-12-01 06:47:00,27.1,25.6,30.27,WSW,243,0.0,0.0,94,0.00,,---,0.00,VWS V14.01,2013-12-01 11:47:00,
2013-12-01 06:50:00,27.6,25.6,30.27,WSW,243,0.0,0.0,92,0.00,,---,0.00,VWS V14.01,2013-12-01 11:50:00,
2013-12-01 06:52:00,26.8,25.0,30.27,WSW,243,0.0,0.0,93,0.00,,---,0.00,VWS V14.01,2013-12-01 11:52:00,
2013-12-01 06:55:00,28.1,26.1,30.28,WSW,243,0.0,0.0,92,0.00,,---,0.00,VWS V14.01,2013-12-01 11:55:00,
2013-12-01 06:57:00,26.5,25.0,30.27,WSW,243,0.0,0.0,94,0.00,,---,0.00,VWS V14.01,2013-12-01 11:57:00,
2013-12-01 07:00:00,28.3,26.0,30.28,WSW,243,0.0,0.0,91,0.00,,---,0.00,VWS V14.01,2013-12-01 12:00:00,
2013-12-01 07:02:00,26.6,25.4,30.27,WSW,243,0.0,0.0,95,0.00,,---,0.00,VWS V14.01,2013-12-01 12:02:00,
2013-12-01 07:05:00,28.1,25.8,30.28,WSW,243,0.0,0.0,91,0.00,,---,0.00,VWS V14.01,2013-12-01 12:05:00,
2013-12-01 07:07:00,26.7,25.5,30.27,WSW,243,0.0,0.0,95,0.00,,---,0.00,VWS V14.01,2013-12-01 12:07:00,
2013-12-01 07:10:00,28.0,26.0,30.28,WSW,243,0.0,0.0,92,0.00,,---,0.00,VWS V14.01,2013-12-01 12:10:00,
2013-12-01 07:12:00,26.5,25.0,30.27,WSW,243,0.0,0.0,94,0.00,,---,0.00,VWS V14.01,2013-12-01 12:12:00,
2013-12-01 07:15:00,27.8,25.8,30.28,WSW,243,0.0,0.0,92,0.00,,---,0.00,VWS V14.01,2013-12-01 12:15:00,
2013-12-01 07:17:00,26.3,25.1,30.27,WSW,243,0.0,0.0,95,0.00,,---,0.00,VWS V14.01,2013-12-01 12:17:00,
2013-12-01 07:20:00,27.7,25.9,30.28,WSW,243,0.0,0.0,93,0.00,,---,0.00,VWS V14.01,2013-12-01 12:20:00,
2013-12-01 07:22:00,26.3,25.1,30.27,WSW,243,0.0,0.0,95,0.00,,---,0.00,VWS V14.01,2013-12-01 12:22:00,
2013-12-01 07:25:00,27.6,25.8,30.28,WSW,243,0.0,0.0,93,0.00,,---,0.00,VWS V14.01,2013-12-01 12:25:00,
2013-12-01 07:27:00,26.5,25.3,30.27,WSW,243,0.0,0.0,95,0.00,,---,0.00,VWS V14.01,2013-12-01 12:27:00,
2013-12-01 07:30:00,27.5,25.8,30.28,WSW,243,0.0,0.0,93,0.00,,---,0.00,VWS V14.01,2013-12-01 12:30:00,
2013-12-01 07:32:00,26.5,25.3,30.27,WSW,243,0.0,0.0,95,0.00,,---,0.00,VWS V14.01,2013-12-01 12:32:00,
2013-12-01 07:35:00,27.4,25.6,30.27,WSW,243,0.0,0.0,93,0.00,,---,0.00,VWS V14.01,2013-12-01 12:35:00,
2013-12-01 07:37:00,26.5,25.3,30.28,WSW,243,0.0,0.0,95,0.00,,---,0.00,VWS V14.01,2013-12-01 12:37:00,
2013-12-01 07:40:00,27.3,25.5,30.27,WSW,243,0.0,0.0,93,0.00,,---,0.00,VWS V14.01,2013-12-01 12:40:00,
2013-12-01 07:42:00,26.4,25.2,30.28,WSW,243,0.0,0.0,95,0.00,,---,0.00,VWS V14.01,2013-12-01 12:42:00,
2013-12-01 07:45:00,27.2,25.7,30.27,WSW,243,0.0,0.0,94,0.00,,---,0.00,VWS V14.01,2013-12-01 12:45:00,
2013-12-01 07:47:00,26.3,25.1,30.28,WSW,243,0.0,0.0,95,0.00,,---,0.00,VWS V14.01,2013-12-01 12:47:00,
2013-12-01 07:50:00,27.0,25.2,30.27,WSW,243,0.0,0.0,93,0.00,,---,0.00,VWS V14.01,2013-12-01 12:50:00,
2013-12-01 07:52:00,26.3,25.3,30.28,WSW,243,0.0,0.0,96,0.00,,---,0.00,VWS V14.01,2013-12-01 12:52:00,
2013-12-01 07:55:00,26.6,24.9,30.27,WSW,243,0.0,0.0,93,0.00,,---,0.00,VWS V14.01,2013-12-01 12:55:00,
2013-12-01 07:57:00,27.0,26.0,30.28,WSW,243,0.0,0.0,96,0.00,,---,0.00,VWS V14.01,2013-12-01 12:57:00,
2013-12-01 08:00:00,26.6,25.1,30.27,WSW,243,0.0,0.0,94,0.00,,---,0.00,VWS V14.01,2013-12-01 13:00:00,
2013-12-01 08:02:00,27.6,26.6,30.28,WSW,243,0.0,0.0,96,0.00,,---,0.00,VWS V14.01,2013-12-01 13:02:00,
2013-12-01 08:05:00,26.6,25.4,30.27,WSW,243,0.0,0.0,95,0.00,,---,0.00,VWS V14.01,2013-12-01 13:05:00,
2013-12-01 08:07:00,28.0,26.8,30.28,WSW,243,0.0,0.0,95,0.00,,---,0.00,VWS V14.01,2013-12-01 13:07:00,
2013-12-01 08:10:00,26.6,25.4,30.27,WSW,243,0.0,0.0,95,0.00,,---,0.00,VWS V14.01,2013-12-01 13:10:00,
2013-12-01 08:12:00,28.0,26.2,30.28,WSW,243,0.0,0.0,93,0.00,,---,0.00,VWS V14.01,2013-12-01 13:12:00,
2013-12-01 08:15:00,26.4,24.9,30.27,WSW,243,0.0,0.0,94,0.00,,---,0.00,VWS V14.01,2013-12-01 13:15:00,
2013-12-01 08:17:00,28.1,26.3,30.28,WSW,243,0.0,0.0,93,0.00,,---,0.00,VWS V14.01,2013-12-01 13:17:00,
2013-12-01 08:20:00,26.4,25.2,30.27,WSW,243,0.0,0.0,95,0.00,,---,0.00,VWS V14.01,2013-12-01 13:20:00,
2013-12-01 08:22:00,28.1,26.3,30.28,WSW,243,0.0,0.0,93,0.00,,---,0.00,VWS V14.01,2013-12-01 13:22:00,
2013-12-01 08:25:00,26.3,25.1,30.27,WSW,243,0.0,0.0,95,0.00,,---,0.00,VWS V14.01,2013-12-01 13:25:00,
2013-12-01 08:27:00,28.3,26.8,30.29,WSW,243,0.0,0.0,94,0.00,,---,0.00,VWS V14.01,2013-12-01 13:27:00,
2013-12-01 08:30:00,26.5,25.3,30.27,WSW,243,0.0,0.0,95,0.00,,---,0.00,VWS V14.01,2013-12-01 13:30:00,
2013-12-01 08:32:00,28.7,27.2,30.28,WSW,243,0.0,0.0,94,0.00,,---,0.00,VWS V14.01,2013-12-01 13:32:00,
2013-12-01 08:35:00,26.5,25.3,30.27,WSW,243,0.0,0.0,95,0.00,,---,0.00,VWS V14.01,2013-12-01 13:35:00,
2013-12-01 08:37:00,29.3,27.5,30.28,WSW,243,0.0,0.0,93,0.00,,---,0.00,VWS V14.01,2013-12-01 13:37:00,
2013-12-01 08:40:00,26.5,25.3,30.28,WSW,243,0.0,0.0,95,0.00,,---,0.00,VWS V14.01,2013-12-01 13:40:00,
2013-12-01 08:42:00,30.0,28.2,30.28,WSW,243,0.0,0.0,93,0.00,,---,0.00,VWS V14.01,2013-12-01 13:42:00,
2013-12-01 08:45:00,26.4,25.2,30.28,WSW,243,0.0,0.0,95,0.00,,---,0.00,VWS V14.01,2013-12-01 13:45:00,
2013-12-01 08:47:00,30.8,29.0,30.28,WSW,243,0.0,0.0,93,0.00,,---,0.00,VWS V14.01,2013-12-01 13:47:00,
2013-12-01 08:52:00,32.0,30.5,30.28,WSW,243,0.0,0.0,94,0.00,,---,0.00,VWS V14.01,2013-12-01 13:52:00,
2013-12-01 08:55:00,26.6,25.6,30.28,WSW,243,0.0,0.0,96,0.00,,---,0.00,VWS V14.01,2013-12-01 13:55:00,
2013-12-01 08:57:00,33.2,30.9,30.28,WSW,243,0.0,0.0,91,0.00,,---,0.00,VWS V14.01,2013-12-01 13:57:00,
2013-12-01 09:00:00,27.2,26.2,30.28,WSW,243,0.0,0.0,96,0.00,,---,0.00,VWS V14.01,2013-12-01 14:00:00,
2013-12-01 09:02:00,34.0,31.6,30.28,WSW,243,0.0,0.0,91,0.00,,---,0.00,VWS V14.01,2013-12-01 14:02:00,
2013-12-01 09:05:00,27.8,26.6,30.28,WSW,243,0.0,0.0,95,0.00,,---,0.00,VWS V14.01,2013-12-01 14:05:00,
2013-12-01 09:07:00,34.6,31.1,30.27,WSW,243,0.0,0.0,87,0.00,,---,0.00,VWS V14.01,2013-12-01 14:07:00,
2013-12-01 09:10:00,28.0,26.5,30.28,WSW,243,0.0,0.0,94,0.00,,---,0.00,VWS V14.01,2013-12-01 14:10:00,
2013-12-01 09:12:00,35.3,31.8,30.27,WSW,243,0.0,0.0,87,0.00,,---,0.00,VWS V14.01,2013-12-01 14:12:00,
2013-12-01 09:15:00,28.1,26.3,30.28,WSW,243,0.0,0.0,93,0.00,,---,0.00,VWS V14.01,2013-12-01 14:15:00,
2013-12-01 09:17:00,35.9,31.8,30.28,WSW,243,0.0,0.0,85,0.00,,---,0.00,VWS V14.01,2013-12-01 14:17:00,
2013-12-01 09:20:00,28.2,26.4,30.28,WSW,243,0.0,0.0,93,0.00,,---,0.00,VWS V14.01,2013-12-01 14:20:00,
2013-12-01 09:22:00,36.8,31.8,30.28,SW,221,0.0,0.0,82,0.00,,---,0.00,VWS V14.01,2013-12-01 14:22:00,
2013-12-01 09:25:00,28.2,26.4,30.28,WSW,243,0.0,0.0,93,0.00,,---,0.00,VWS V14.01,2013-12-01 14:25:00,
2013-12-01 09:27:00,37.2,31.6,30.28,SSE,151,0.0,1.0,80,0.00,,---,0.00,VWS V14.01,2013-12-01 14:27:00,
2013-12-01 09:30:00,28.5,27.0,30.29,WSW,243,0.0,0.0,94,0.00,,---,0.00,VWS V14.01,2013-12-01 14:30:00,
2013-12-01 09:32:00,37.8,31.9,30.28,SE,132,1.0,1.0,79,0.00,,---,0.00,VWS V14.01,2013-12-01 14:32:00,
2013-12-01 09:35:00,29.0,27.2,30.28,WSW,243,0.0,0.0,93,0.00,,---,0.00,VWS V14.01,2013-12-01 14:35:00,
2013-12-01 09:37:00,38.1,31.9,30.28,SE,140,0.0,1.0,78,0.00,,---,0.00,VWS V14.01,2013-12-01 14:37:00,
2013-12-01 09:40:00,29.6,27.8,30.28,WSW,243,0.0,0.0,93,0.00,,---,0.00,VWS V14.01,2013-12-01 14:40:00,
2013-12-01 09:42:00,38.5,31.6,30.28,WSW,247,0.0,1.0,76,0.00,,---,0.00,VWS V14.01,2013-12-01 14:42:00,
2013-12-01 09:45:00,30.3,28.5,30.28,WSW,243,0.0,0.0,93,0.00,,---,0.00,VWS V14.01,2013-12-01 14:45:00,
2013-12-01 09:47:00,38.8,31.2,30.27,SE,137,1.0,3.0,74,0.00,,---,0.00,VWS V14.01,2013-12-01 14:47:00,
2013-12-01 09:50:00,31.2,29.4,30.28,WSW,243,0.0,0.0,93,0.00,,---,0.00,VWS V14.01,2013-12-01 14:50:00,
2013-12-01 09:52:00,39.2,31.3,30.27,SE,143,0.0,3.0,73,0.00,,---,0.00,VWS V14.01,2013-12-01 14:52:00,
2013-12-01 09:55:00,32.6,31.1,30.28,WSW,243,0.0,0.0,94,0.00,,---,0.00,VWS V14.01,2013-12-01 14:55:00,
2013-12-01 09:57:00,39.4,30.8,30.27,SE,132,0.0,3.0,71,0.00,,---,0.00,VWS V14.01,2013-12-01 14:57:00,
2013-12-01 10:00:00,33.5,30.9,30.28,WSW,243,0.0,0.0,90,0.00,,---,0.00,VWS V14.01,2013-12-01 15:00:00,
2013-12-01 10:02:00,39.6,31.0,30.27,SE,143,1.0,2.0,71,0.00,,---,0.00,VWS V14.01,2013-12-01 15:02:00,
2013-12-01 10:05:00,34.3,31.4,30.27,WSW,243,0.0,0.0,89,0.00,,---,0.00,VWS V14.01,2013-12-01 15:05:00,
2013-12-01 10:07:00,40.1,31.1,30.27,SSE,167,0.0,1.0,70,0.00,,---,0.00,VWS V14.01,2013-12-01 15:07:00,
2013-12-01 10:10:00,34.9,31.7,30.27,WSW,243,0.0,0.0,88,0.00,,---,0.00,VWS V14.01,2013-12-01 15:10:00,
2013-12-01 10:12:00,40.5,30.8,30.26,ESE,117,0.0,3.0,68,0.00,,---,0.00,VWS V14.01,2013-12-01 15:12:00,
2013-12-01 10:15:00,35.5,31.7,30.28,WSW,243,0.0,0.0,86,0.00,,---,0.00,VWS V14.01,2013-12-01 15:15:00,
2013-12-01 10:17:00,40.6,30.9,30.26,SW,222,0.0,3.0,68,0.00,,---,0.00,VWS V14.01,2013-12-01 15:17:00,
2013-12-01 10:20:00,36.4,32.0,30.28,SW,217,0.0,0.0,84,0.00,,---,0.00,VWS V14.01,2013-12-01 15:20:00,
2013-12-01 10:22:00,40.9,31.2,30.26,WSW,247,0.0,2.0,68,0.00,,---,0.00,VWS V14.01,2013-12-01 15:22:00,
2013-12-01 10:25:00,37.0,30.8,30.28,SE,138,0.0,3.0,78,0.00,,---,0.00,VWS V14.01,2013-12-01 15:25:00,
2013-12-01 10:27:00,41.6,31.5,30.26,SE,138,2.0,4.0,67,0.00,,---,0.00,VWS V14.01,2013-12-01 15:27:00,
2013-12-01 10:30:00,37.5,32.2,30.27,SE,143,0.0,1.0,81,0.00,,---,0.00,VWS V14.01,2013-12-01 15:30:00,
2013-12-01 10:32:00,41.9,30.6,30.26,SSW,209,3.0,6.0,64,0.00,,---,0.00,VWS V14.01,2013-12-01 15:32:00,
2013-12-01 10:35:00,37.9,31.4,30.28,SE,145,0.0,1.0,77,0.00,,---,0.00,VWS V14.01,2013-12-01 15:35:00,
2013-12-01 10:37:00,42.0,30.7,30.26,SSW,212,1.0,3.0,64,0.00,,---,0.00,VWS V14.01,2013-12-01 15:37:00,
2013-12-01 10:40:00,38.3,31.7,30.28,South,173,1.0,1.0,77,0.00,,---,0.00,VWS V14.01,2013-12-01 15:40:00,
2013-12-01 10:42:00,42.5,31.2,30.26,SSW,205,2.0,2.0,64,0.00,,---,0.00,VWS V14.01,2013-12-01 15:42:00,
2013-12-01 10:45:00,38.6,31.4,30.27,SE,124,0.0,1.0,75,0.00,,---,0.00,VWS V14.01,2013-12-01 15:45:00,
2013-12-01 10:47:00,43.1,31.4,30.26,WSW,241,2.0,4.0,63,0.00,,---,0.00,VWS V14.01,2013-12-01 15:47:00,
2013-12-01 10:50:00,38.9,31.3,30.27,WSW,245,0.0,3.0,74,0.00,,---,0.00,VWS V14.01,2013-12-01 15:50:00,
2013-12-01 10:52:00,43.6,30.6,30.26,SSW,195,4.0,5.0,60,0.00,,---,0.00,VWS V14.01,2013-12-01 15:52:00,
2013-12-01 10:55:00,39.3,31.0,30.27,South,172,1.0,4.0,72,0.00,,---,0.00,VWS V14.01,2013-12-01 15:55:00,
2013-12-01 10:57:00,44.0,30.6,30.25,SSW,199,3.0,8.0,59,0.00,,---,0.00,VWS V14.01,2013-12-01 15:57:00,
2013-12-01 11:00:00,39.5,30.9,30.27,SSE,152,1.0,3.0,71,0.00,,---,0.00,VWS V14.01,2013-12-01 16:00:00,
2013-12-01 11:02:00,44.2,30.8,30.25,South,175,2.0,6.0,59,0.00,,---,0.00,VWS V14.01,2013-12-01 16:02:00,
2013-12-01 11:05:00,39.8,30.8,30.27,SE,141,1.0,3.0,70,0.00,,---,0.00,VWS V14.01,2013-12-01 16:05:00,
2013-12-01 11:07:00,44.6,31.2,30.25,South,191,1.0,3.0,59,0.00,,---,0.00,VWS V14.01,2013-12-01 16:07:00,
2013-12-01 11:10:00,40.2,30.9,30.27,SSE,150,0.0,2.0,69,0.00,,---,0.00,VWS V14.01,2013-12-01 16:10:00,
2013-12-01 11:12:00,45.1,30.8,30.25,SSW,193,2.0,4.0,57,0.00,,---,0.00,VWS V14.01,2013-12-01 16:12:00,
2013-12-01 11:15:00,40.5,31.1,30.26,South,169,2.0,3.0,69,0.00,,---,0.00,VWS V14.01,2013-12-01 16:15:00,
2013-12-01 11:17:00,45.4,31.5,30.24,SW,221,1.0,5.0,58,0.00,,---,0.00,VWS V14.01,2013-12-01 16:17:00,
2013-12-01 11:20:00,40.7,31.0,30.27,SE,146,0.0,3.0,68,0.00,,---,0.00,VWS V14.01,2013-12-01 16:20:00,
2013-12-01 11:22:00,45.9,31.5,30.24,SSE,158,0.0,5.0,57,0.00,,---,0.00,VWS V14.01,2013-12-01 16:22:00,
2013-12-01 11:25:00,41.1,31.4,30.26,SE,146,1.0,2.0,68,0.00,,---,0.00,VWS V14.01,2013-12-01 16:25:00,
2013-12-01 11:27:00,45.8,31.0,30.24,SSW,199,5.0,8.0,56,0.00,,---,0.00,VWS V14.01,2013-12-01 16:27:00,
2013-12-01 11:30:00,41.7,30.8,30.26,South,188,3.0,5.0,65,0.00,,---,0.00,VWS V14.01,2013-12-01 16:30:00,
2013-12-01 11:32:00,45.6,31.3,30.24,South,178,0.0,5.0,57,0.00,,---,0.00,VWS V14.01,2013-12-01 16:32:00,
2013-12-01 11:35:00,41.9,30.6,30.26,WSW,251,3.0,6.0,64,0.00,,---,0.00,VWS V14.01,2013-12-01 16:35:00,
2013-12-01 11:37:00,45.9,31.5,30.23,ESE,123,3.0,6.0,57,0.00,,---,0.00,VWS V14.01,2013-12-01 16:37:00,
2013-12-01 11:40:00,42.2,30.9,30.26,West,269,1.0,3.0,64,0.00,,---,0.00,VWS V14.01,2013-12-01 16:40:00,
2013-12-01 11:42:00,46.2,32.2,30.23,ENE,71,0.0,4.0,58,0.00,,---,0.00,VWS V14.01,2013-12-01 16:42:00,
2013-12-01 11:45:00,42.8,30.7,30.26,WSW,243,3.0,5.0,62,0.00,,---,0.00,VWS V14.01,2013-12-01 16:45:00,
2013-12-01 11:47:00,46.7,32.3,30.23,SE,131,4.0,4.0,57,0.00,,---,0.00,VWS V14.01,2013-12-01 16:47:00,
2013-12-01 11:50:00,43.3,30.8,30.26,SSE,160,1.0,4.0,61,0.00,,---,0.00,VWS V14.01,2013-12-01 16:50:00,
2013-12-01 11:52:00,47.1,31.8,30.22,WSW,250,0.0,4.0,55,0.00,,---,0.00,VWS V14.01,2013-12-01 16:52:00,
2013-12-01 11:55:00,43.7,30.7,30.25,South,184,3.0,7.0,60,0.00,,---,0.00,VWS V14.01,2013-12-01 16:55:00,
2013-12-01 11:57:00,47.4,33.0,30.22,SSE,147,3.0,5.0,57,0.00,,---,0.00,VWS V14.01,2013-12-01 16:57:00,
2013-12-01 12:00:00,44.0,30.6,30.25,South,173,3.0,8.0,59,0.00,,---,0.00,VWS V14.01,2013-12-01 17:00:00,
2013-12-01 12:02:00,47.8,32.4,30.21,South,186,2.0,5.0,55,0.00,,---,0.00,VWS V14.01,2013-12-01 17:02:00,
2013-12-01 12:05:00,44.3,30.9,30.25,SW,234,3.0,6.0,59,0.00,,---,0.00,VWS V14.01,2013-12-01 17:05:00,
2013-12-01 12:07:00,48.1,32.7,30.21,West,262,2.0,4.0,55,0.00,,---,0.00,VWS V14.01,2013-12-01 17:07:00,
2013-12-01 12:10:00,44.8,30.9,30.25,WSW,240,1.0,4.0,58,0.00,,---,0.00,VWS V14.01,2013-12-01 17:10:00,
2013-12-01 12:12:00,48.7,32.8,30.21,ESE,121,3.0,5.0,54,0.00,,---,0.00,VWS V14.01,2013-12-01 17:12:00,
2013-12-01 12:15:00,45.2,31.3,30.24,South,183,2.0,5.0,58,0.00,,---,0.00,VWS V14.01,2013-12-01 17:15:00,
2013-12-01 12:17:00,49.2,32.3,30.20,WSW,238,6.0,7.0,52,0.00,,---,0.00,VWS V14.01,2013-12-01 17:17:00,
2013-12-01 12:20:00,45.5,31.6,30.24,SSE,150,0.0,5.0,58,0.00,,---,0.00,VWS V14.01,2013-12-01 17:20:00,
2013-12-01 12:22:00,49.3,32.4,30.20,SSE,160,2.0,7.0,52,0.00,,---,0.00,VWS V14.01,2013-12-01 17:22:00,
2013-12-01 12:25:00,45.9,31.5,30.24,SSE,147,4.0,6.0,57,0.00,,---,0.00,VWS V14.01,2013-12-01 17:25:00,
2013-12-01 12:28:00,49.8,33.4,30.19,SE,124,2.0,5.0,53,0.00,,---,0.00,VWS V14.01,2013-12-01 17:28:00,
2013-12-01 12:30:00,45.6,30.8,30.24,SW,221,5.0,9.0,56,0.00,,---,0.00,VWS V14.01,2013-12-01 17:30:00,
2013-12-01 12:33:00,49.9,33.0,30.19,SSE,150,6.0,6.0,52,0.00,,---,0.00,VWS V14.01,2013-12-01 17:33:00,
2013-12-01 12:35:00,45.7,31.4,30.23,SSE,167,6.0,6.0,57,0.00,,---,0.00,VWS V14.01,2013-12-01 17:35:00,
2013-12-01 12:38:00,49.9,33.0,30.19,SE,130,4.0,7.0,52,0.00,,---,0.00,VWS V14.01,2013-12-01 17:38:00,
2013-12-01 12:40:00,46.0,31.6,30.23,SSW,202,3.0,7.0,57,0.00,,---,0.00,VWS V14.01,2013-12-01 17:40:00,
2013-12-01 12:43:00,50.1,33.2,30.19,SW,226,4.0,4.0,52,0.00,,---,0.00,VWS V14.01,2013-12-01 17:43:00,
2013-12-01 12:45:00,46.4,32.4,30.23,South,173,0.0,4.0,58,0.00,,---,0.00,VWS V14.01,2013-12-01 17:45:00,
2013-12-01 12:48:00,50.2,33.7,30.18,SSE,155,3.0,6.0,53,0.00,,---,0.00,VWS V14.01,2013-12-01 17:48:00,
2013-12-01 12:50:00,46.8,32.0,30.22,South,188,1.0,4.0,56,0.00,,---,0.00,VWS V14.01,2013-12-01 17:50:00,
2013-12-01 12:53:00,50.5,33.5,30.18,ESE,116,1.0,8.0,52,0.00,,---,0.00,VWS V14.01,2013-12-01 17:53:00,
2013-12-01 12:55:00,47.2,32.8,30.22,SSE,158,0.0,4.0,57,0.00,,---,0.00,VWS V14.01,2013-12-01 17:55:00,
2013-12-01 12:58:00,50.8,33.8,30.18,South,174,1.0,9.0,52,0.00,,---,0.00,VWS V14.01,2013-12-01 17:58:00,
2013-12-01 13:00:00,47.6,32.2,30.22,West,262,3.0,5.0,55,0.00,,---,0.00,VWS V14.01,2013-12-01 18:00:00,
2013-12-01 13:03:00,51.1,34.1,30.18,SE,139,5.0,8.0,52,0.00,,---,0.00,VWS V14.01,2013-12-01 18:03:00,
2013-12-01 13:05:00,47.9,32.5,30.21,SW,224,3.0,5.0,55,0.00,,---,0.00,VWS V14.01,2013-12-01 18:05:00,
2013-12-01 13:08:00,50.5,34.0,30.17,SW,232,3.0,8.0,53,0.00,,---,0.00,VWS V14.01,2013-12-01 18:08:00,
2013-12-01 13:10:00,48.3,32.4,30.21,ESE,120,2.0,5.0,54,0.00,,---,0.00,VWS V14.01,2013-12-01 18:10:00,
2013-12-01 13:13:00,50.5,34.0,30.17,WSW,240,5.0,7.0,53,0.00,,---,0.00,VWS V14.01,2013-12-01 18:13:00,
2013-12-01 13:15:00,48.8,32.4,30.21,SSE,147,1.0,5.0,53,0.00,,---,0.00,VWS V14.01,2013-12-01 18:15:00,
2013-12-01 13:18:00,50.5,34.5,30.17,SW,229,1.0,6.0,54,0.00,,---,0.00,VWS V14.01,2013-12-01 18:18:00,
2013-12-01 13:20:00,49.3,32.4,30.20,SSE,162,4.0,7.0,52,0.00,,---,0.00,VWS V14.01,2013-12-01 18:20:00,
2013-12-01 13:23:00,50.6,34.6,30.16,SSE,163,2.0,9.0,54,0.00,,---,0.00,VWS V14.01,2013-12-01 18:23:00,
2013-12-01 13:25:00,49.5,33.1,30.20,South,169,3.0,7.0,53,0.00,,---,0.00,VWS V14.01,2013-12-01 18:25:00,
2013-12-01 13:28:00,51.5,35.4,30.16,West,276,3.0,5.0,54,0.00,,---,0.00,VWS V14.01,2013-12-01 18:28:00,
2013-12-01 13:30:00,50.0,33.1,30.20,ESE,110,2.0,5.0,52,0.00,,---,0.00,VWS V14.01,2013-12-01 18:30:00,
2013-12-01 13:33:00,51.6,35.0,30.15,SSW,201,4.0,10.0,53,0.00,,---,0.00,VWS V14.01,2013-12-01 18:33:00,
2013-12-01 13:35:00,50.0,33.1,30.20,South,175,5.0,6.0,52,0.00,,---,0.00,VWS V14.01,2013-12-01 18:35:00,
2013-12-01 13:38:00,51.9,35.3,30.15,SE,127,6.0,8.0,53,0.00,,---,0.00,VWS V14.01,2013-12-01 18:38:00,
2013-12-01 13:40:00,49.9,33.0,30.19,East,98,1.0,7.0,52,0.00,,---,0.00,VWS V14.01,2013-12-01 18:40:00,
2013-12-01 13:43:00,51.9,35.3,30.15,SSW,203,4.0,10.0,53,0.00,,---,0.00,VWS V14.01,2013-12-01 18:43:00,
2013-12-01 13:45:00,50.2,33.7,30.19,SSW,200,4.0,5.0,53,0.00,,---,0.00,VWS V14.01,2013-12-01 18:45:00,
2013-12-01 13:48:00,52.0,35.4,30.14,SE,128,3.0,9.0,53,0.00,,---,0.00,VWS V14.01,2013-12-01 18:48:00,
2013-12-01 13:50:00,50.3,33.8,30.19,SSW,200,3.0,7.0,53,0.00,,---,0.00,VWS V14.01,2013-12-01 18:50:00,
2013-12-01 13:53:00,52.4,35.8,30.14,South,174,3.0,7.0,53,0.00,,---,0.00,VWS V14.01,2013-12-01 18:53:00,
2013-12-01 13:55:00,50.6,33.6,30.18,SW,215,3.0,8.0,52,0.00,,---,0.00,VWS V14.01,2013-12-01 18:55:00,
2013-12-01 13:58:00,52.3,35.7,30.14,WSW,254,1.0,6.0,53,0.00,,---,0.00,VWS V14.01,2013-12-01 18:58:00,
2013-12-01 14:00:00,50.9,33.9,30.18,South,171,0.0,9.0,52,0.00,,---,0.00,VWS V14.01,2013-12-01 19:00:00,
2013-12-01 14:03:00,52.4,35.8,30.14,South,184,0.0,5.0,53,0.00,,---,0.00,VWS V14.01,2013-12-01 19:03:00,
2013-12-01 14:05:00,51.0,34.5,30.18,SSW,208,4.0,8.0,53,0.00,,---,0.00,VWS V14.01,2013-12-01 19:05:00,
2013-12-01 14:08:00,52.7,36.1,30.13,West,264,2.0,5.0,53,0.00,,---,0.00,VWS V14.01,2013-12-01 19:08:00,
2013-12-01 14:10:00,50.5,34.5,30.17,WSW,238,4.0,8.0,54,0.00,,---,0.00,VWS V14.01,2013-12-01 19:10:00,
2013-12-01 14:13:00,52.8,36.2,30.13,West,267,0.0,6.0,53,0.00,,---,0.00,VWS V14.01,2013-12-01 19:13:00,
2013-12-01 14:15:00,50.5,34.0,30.17,SW,236,4.0,7.0,53,0.00,,---,0.00,VWS V14.01,2013-12-01 19:15:00,
2013-12-01 14:18:00,53.2,36.5,30.13,South,171,3.0,5.0,53,0.00,,---,0.00,VWS V14.01,2013-12-01 19:18:00,
2013-12-01 14:20:00,50.6,34.6,30.17,WSW,257,1.0,6.0,54,0.00,,---,0.00,VWS V14.01,2013-12-01 19:20:00,
2013-12-01 14:23:00,53.0,36.3,30.12,SW,224,1.0,6.0,53,0.00,,---,0.00,VWS V14.01,2013-12-01 19:23:00,
2013-12-01 14:25:00,50.8,34.8,30.16,SSE,149,4.0,9.0,54,0.00,,---,0.00,VWS V14.01,2013-12-01 19:25:00,
2013-12-01 14:28:00,53.3,36.6,30.12,South,176,0.0,4.0,53,0.00,,---,0.00,VWS V14.01,2013-12-01 19:28:00,
2013-12-01 14:30:00,51.6,35.5,30.16,SE,131,3.0,6.0,54,0.00,,---,0.00,VWS V14.01,2013-12-01 19:30:00,
2013-12-01 14:33:00,53.6,36.4,30.12,South,181,2.0,6.0,52,0.00,,---,0.00,VWS V14.01,2013-12-01 19:33:00,
2013-12-01 14:35:00,51.6,35.0,30.15,SW,232,2.0,10.0,53,0.00,,---,0.00,VWS V14.01,2013-12-01 19:35:00,
2013-12-01 14:38:00,53.7,36.5,30.11,South,176,1.0,6.0,52,0.00,,---,0.00,VWS V14.01,2013-12-01 19:38:00,
2013-12-01 14:40:00,51.9,35.3,30.15,South,170,7.0,10.0,53,0.00,,---,0.00,VWS V14.01,2013-12-01 19:40:00,
2013-12-01 14:43:00,53.7,36.5,30.11,WSW,245,0.0,5.0,52,0.00,,---,0.00,VWS V14.01,2013-12-01 19:43:00,
2013-12-01 14:45:00,52.0,35.4,30.15,SE,144,6.0,10.0,53,0.00,,---,0.00,VWS V14.01,2013-12-01 19:45:00,
2013-12-01 14:48:00,53.8,37.1,30.11,ESE,120,2.0,5.0,53,0.00,,---,0.00,VWS V14.01,2013-12-01 19:48:00,
2013-12-01 14:50:00,52.2,36.1,30.14,SSE,153,4.0,9.0,54,0.00,,---,0.00,VWS V14.01,2013-12-01 19:50:00,
2013-12-01 14:53:00,53.7,36.5,30.11,SW,217,1.0,7.0,52,0.00,,---,0.00,VWS V14.01,2013-12-01 19:53:00,
2013-12-01 14:55:00,52.4,35.8,30.14,SSW,201,4.0,7.0,53,0.00,,---,0.00,VWS V14.01,2013-12-01 19:55:00,
2013-12-01 14:58:00,53.9,36.2,30.11,West,273,3.0,7.0,51,0.00,,---,0.00,VWS V14.01,2013-12-01 19:58:00,
2013-12-01 15:00:00,52.3,35.7,30.14,SSE,163,5.0,7.0,53,0.00,,---,0.00,VWS V14.01,2013-12-01 20:00:00,
2013-12-01 15:03:00,54.0,36.8,30.11,SW,224,0.0,6.0,52,0.00,,---,0.00,VWS V14.01,2013-12-01 20:03:00,
2013-12-01 15:05:00,52.5,35.9,30.14,South,172,2.0,5.0,53,0.00,,---,0.00,VWS V14.01,2013-12-01 20:05:00,
2013-12-01 15:08:00,54.3,37.1,30.11,SSW,203,0.0,5.0,52,0.00,,---,0.00,VWS V14.01,2013-12-01 20:08:00,
2013-12-01 15:10:00,52.7,35.6,30.13,SW,236,6.0,6.0,52,0.00,,---,0.00,VWS V14.01,2013-12-01 20:10:00,
2013-12-01 15:13:00,54.5,36.8,30.11,WSW,251,1.0,9.0,51,0.00,,---,0.00,VWS V14.01,2013-12-01 20:13:00,
2013-12-01 15:15:00,53.0,36.3,30.13,East,98,1.0,6.0,53,0.00,,---,0.00,VWS V14.01,2013-12-01 20:15:00,
2013-12-01 15:18:00,54.5,36.8,30.10,WSW,248,1.0,3.0,51,0.00,,---,0.00,VWS V14.01,2013-12-01 20:18:00,
2013-12-01 15:20:00,53.2,36.0,30.13,WNW,285,2.0,6.0,52,0.00,,---,0.00,VWS V14.01,2013-12-01 20:20:00,
2013-12-01 15:23:00,54.4,36.7,30.10,SW,219,4.0,4.0,51,0.00,,---,0.00,VWS V14.01,2013-12-01 20:23:00,
2013-12-01 15:25:00,53.2,36.5,30.12,WSW,253,0.0,6.0,53,0.00,,---,0.00,VWS V14.01,2013-12-01 20:25:00,
2013-12-01 15:28:00,54.3,36.6,30.10,West,266,3.0,5.0,51,0.00,,---,0.00,VWS V14.01,2013-12-01 20:28:00,
2013-12-01 15:33:00,54.4,37.2,30.10,West,264,0.0,3.0,52,0.00,,---,0.00,VWS V14.01,2013-12-01 20:33:00,
2013-12-01 15:35:00,53.6,36.4,30.12,SSW,212,1.0,6.0,52,0.00,,---,0.00,VWS V14.01,2013-12-01 20:35:00,
2013-12-01 15:38:00,54.5,36.8,30.09,South,181,2.0,4.0,51,0.00,,---,0.00,VWS V14.01,2013-12-01 20:38:00,
2013-12-01 15:40:00,53.7,36.5,30.11,SE,139,1.0,6.0,52,0.00,,---,0.00,VWS V14.01,2013-12-01 20:40:00,
2013-12-01 15:43:00,54.6,36.3,30.09,South,184,2.0,5.0,50,0.00,,---,0.00,VWS V14.01,2013-12-01 20:43:00,
2013-12-01 15:48:00,54.4,36.2,30.09,SSE,158,2.0,6.0,50,0.00,,---,0.00,VWS V14.01,2013-12-01 20:48:00,
2013-12-01 15:50:00,53.8,36.6,30.11,SSE,159,2.0,9.0,52,0.00,,---,0.00,VWS V14.01,2013-12-01 20:50:00,
2013-12-01 15:53:00,54.3,36.6,30.09,ESE,107,1.0,3.0,51,0.00,,---,0.00,VWS V14.01,2013-12-01 20:53:00,
2013-12-01 15:58:00,54.2,36.5,30.09,SW,224,0.0,4.0,51,0.00,,---,0.00,VWS V14.01,2013-12-01 20:58:00,
2013-12-01 16:00:00,53.8,36.6,30.11,SW,219,4.0,7.0,52,0.00,,---,0.00,VWS V14.01,2013-12-01 21:00:00,
2013-12-01 16:03:00,54.2,36.5,30.09,SE,136,0.0,2.0,51,0.00,,---,0.00,VWS V14.01,2013-12-01 21:03:00,
2013-12-01 16:05:00,54.2,37.0,30.11,WSW,258,3.0,6.0,52,0.00,,---,0.00,VWS V14.01,2013-12-01 21:05:00,
2013-12-01 16:08:00,54.2,36.5,30.08,SW,223,0.0,1.0,51,0.00,,---,0.00,VWS V14.01,2013-12-01 21:08:00,
2013-12-01 16:10:00,54.4,37.2,30.11,SSW,212,0.0,5.0,52,0.00,,---,0.00,VWS V14.01,2013-12-01 21:10:00,
2013-12-01 16:13:00,54.1,36.4,30.08,WSW,244,0.0,1.0,51,0.00,,---,0.00,VWS V14.01,2013-12-01 21:13:00,
2013-12-01 16:15:00,54.5,36.8,30.11,SSW,196,2.0,9.0,51,0.00,,---,0.00,VWS V14.01,2013-12-01 21:15:00,
2013-12-01 16:18:00,54.1,36.4,30.09,WSW,243,0.0,0.0,51,0.00,,---,0.00,VWS V14.01,2013-12-01 21:18:00,
2013-12-01 16:20:00,54.5,36.8,30.10,SW,216,4.0,5.0,51,0.00,,---,0.00,VWS V14.01,2013-12-01 21:20:00,
2013-12-01 16:23:00,54.0,36.3,30.09,SE,139,0.0,1.0,51,0.00,,---,0.00,VWS V14.01,2013-12-01 21:23:00,
2013-12-01 16:25:00,54.4,36.7,30.10,SSW,207,1.0,4.0,51,0.00,,---,0.00,VWS V14.01,2013-12-01 21:25:00,
2013-12-01 16:28:00,53.7,36.0,30.09,South,177,4.0,4.0,51,0.00,,---,0.00,VWS V14.01,2013-12-01 21:28:00,
2013-12-01 16:30:00,54.3,36.6,30.10,SW,219,2.0,5.0,51,0.00,,---,0.00,VWS V14.01,2013-12-01 21:30:00,
2013-12-01 16:33:00,53.5,36.3,30.08,SSE,155,1.0,3.0,52,0.00,,---,0.00,VWS V14.01,2013-12-01 21:33:00,
2013-12-01 16:38:00,53.4,36.7,30.08,SSW,200,0.0,1.0,53,0.00,,---,0.00,VWS V14.01,2013-12-01 21:38:00,
2013-12-01 16:40:00,54.5,36.8,30.09,SW,217,2.0,4.0,51,0.00,,---,0.00,VWS V14.01,2013-12-01 21:40:00,
2013-12-01 16:43:00,53.2,36.0,30.08,SE,145,0.0,4.0,52,0.00,,---,0.00,VWS V14.01,2013-12-01 21:43:00,
2013-12-01 16:45:00,54.5,36.8,30.09,SE,136,0.0,5.0,51,0.00,,---,0.00,VWS V14.01,2013-12-01 21:45:00,
2013-12-01 16:48:00,53.0,36.8,30.08,South,190,0.0,2.0,54,0.00,,---,0.00,VWS V14.01,2013-12-01 21:48:00,
2013-12-01 16:50:00,54.3,36.1,30.09,SSW,198,2.0,6.0,50,0.00,,---,0.00,VWS V14.01,2013-12-01 21:50:00,
2013-12-01 16:53:00,52.9,36.7,30.08,SW,230,0.0,4.0,54,0.00,,---,0.00,VWS V14.01,2013-12-01 21:53:00,
2013-12-01 16:55:00,54.3,36.6,30.09,ESE,111,0.0,3.0,51,0.00,,---,0.00,VWS V14.01,2013-12-01 21:55:00,
2013-12-01 16:58:00,52.8,37.1,30.08,South,186,0.0,1.0,55,0.00,,---,0.00,VWS V14.01,2013-12-01 21:58:00,
2013-12-01 17:00:00,54.3,37.1,30.09,SSE,167,0.0,4.0,52,0.00,,---,0.00,VWS V14.01,2013-12-01 22:00:00,
2013-12-01 17:03:00,52.6,36.9,30.08,SSW,212,0.0,1.0,55,0.00,,---,0.00,VWS V14.01,2013-12-01 22:03:00,
2013-12-01 17:05:00,54.2,36.5,30.09,SE,135,1.0,2.0,51,0.00,,---,0.00,VWS V14.01,2013-12-01 22:05:00,
2013-12-01 17:08:00,52.5,36.8,30.08,SW,225,0.0,2.0,55,0.00,,---,0.00,VWS V14.01,2013-12-01 22:08:00,
2013-12-01 17:10:00,54.1,35.9,30.08,SW,224,0.0,1.0,50,0.00,,---,0.00,VWS V14.01,2013-12-01 22:10:00,
2013-12-01 17:13:00,52.3,36.6,30.07,South,188,0.0,2.0,55,0.00,,---,0.00,VWS V14.01,2013-12-01 22:13:00,
2013-12-01 17:15:00,54.1,36.4,30.09,WSW,244,0.0,1.0,51,0.00,,---,0.00,VWS V14.01,2013-12-01 22:15:00,
2013-12-01 17:18:00,52.1,36.9,30.07,East,96,0.0,1.0,56,0.00,,---,0.00,VWS V14.01,2013-12-01 22:18:00,
2013-12-01 17:20:00,54.1,36.4,30.09,SSW,203,0.0,1.0,51,0.00,,---,0.00,VWS V14.01,2013-12-01 22:20:00,
2013-12-01 17:23:00,51.9,37.2,30.07,South,186,0.0,3.0,57,0.00,,---,0.00,VWS V14.01,2013-12-01 22:23:00,
2013-12-01 17:25:00,53.8,36.1,30.08,SE,133,0.0,1.0,51,0.00,,---,0.00,VWS V14.01,2013-12-01 22:25:00,
2013-12-01 17:28:00,51.9,37.2,30.07,SW,226,1.0,1.0,57,0.00,,---,0.00,VWS V14.01,2013-12-01 22:28:00,
2013-12-01 17:30:00,53.7,36.0,30.09,SE,146,0.0,4.0,51,0.00,,---,0.00,VWS V14.01,2013-12-01 22:30:00,
2013-12-01 17:33:00,51.8,37.1,30.07,SE,146,1.0,4.0,57,0.00,,---,0.00,VWS V14.01,2013-12-01 22:33:00,
2013-12-01 17:35:00,53.5,36.3,30.09,South,170,0.0,3.0,52,0.00,,---,0.00,VWS V14.01,2013-12-01 22:35:00,
2013-12-01 17:38:00,51.7,37.0,30.06,South,170,0.0,1.0,57,0.00,,---,0.00,VWS V14.01,2013-12-01 22:38:00,
2013-12-01 17:40:00,53.3,36.1,30.08,WSW,252,1.0,2.0,52,0.00,,---,0.00,VWS V14.01,2013-12-01 22:40:00,
2013-12-01 17:43:00,51.5,37.2,30.06,WSW,248,0.0,1.0,58,0.00,,---,0.00,VWS V14.01,2013-12-01 22:43:00,
2013-12-01 17:45:00,53.2,36.5,30.08,SSW,209,2.0,4.0,53,0.00,,---,0.00,VWS V14.01,2013-12-01 22:45:00,
2013-12-01 17:48:00,51.5,37.2,30.06,WSW,245,0.0,1.0,58,0.00,,---,0.00,VWS V14.01,2013-12-01 22:48:00,
2013-12-01 17:50:00,53.0,36.3,30.08,SW,224,0.0,2.0,53,0.00,,---,0.00,VWS V14.01,2013-12-01 22:50:00,
2013-12-01 17:53:00,51.4,37.1,30.06,WSW,245,0.0,1.0,58,0.00,,---,0.00,VWS V14.01,2013-12-01 22:53:00,
2013-12-01 17:55:00,52.8,36.6,30.08,WSW,238,0.0,4.0,54,0.00,,---,0.00,VWS V14.01,2013-12-01 22:55:00,
2013-12-01 17:58:00,51.3,37.5,30.06,WSW,245,0.0,0.0,59,0.00,,---,0.00,VWS V14.01,2013-12-01 22:58:00,
2013-12-01 18:00:00,52.7,36.5,30.08,SW,214,0.0,1.0,54,0.00,,---,0.00,VWS V14.01,2013-12-01 23:00:00,
2013-12-01 18:03:00,51.1,38.1,30.06,WSW,245,0.0,0.0,61,0.00,,---,0.00,VWS V14.01,2013-12-01 23:03:00,
2013-12-01 18:05:00,52.6,36.9,30.08,SSE,158,1.0,2.0,55,0.00,,---,0.00,VWS V14.01,2013-12-01 23:05:00,
2013-12-01 18:08:00,50.8,38.3,30.06,WSW,245,0.0,0.0,62,0.00,,---,0.00,VWS V14.01,2013-12-01 23:08:00,
2013-12-01 18:10:00,52.5,36.8,30.08,SW,233,1.0,2.0,55,0.00,,---,0.00,VWS V14.01,2013-12-01 23:10:00,
2013-12-01 18:13:00,50.6,38.1,30.06,WSW,245,0.0,0.0,62,0.00,,---,0.00,VWS V14.01,2013-12-01 23:13:00,
2013-12-01 18:15:00,52.3,37.5,30.08,South,188,0.0,2.0,57,0.00,,---,0.00,VWS V14.01,2013-12-01 23:15:00,
2013-12-01 18:18:00,50.5,38.0,30.06,WSW,245,0.0,0.0,62,0.00,,---,0.00,VWS V14.01,2013-12-01 23:18:00,
2013-12-01 18:20:00,52.1,36.9,30.07,SE,138,0.0,1.0,56,0.00,,---,0.00,VWS V14.01,2013-12-01 23:20:00,
2013-12-01 18:23:00,50.4,38.3,30.06,WSW,245,0.0,0.0,63,0.00,,---,0.00,VWS V14.01,2013-12-01 23:23:00,
2013-12-01 18:25:00,51.9,36.7,30.07,ESE,111,0.0,3.0,56,0.00,,---,0.00,VWS V14.01,2013-12-01 23:25:00,
2013-12-01 18:28:00,50.1,37.6,30.06,WSW,245,0.0,0.0,62,0.00,,---,0.00,VWS V14.01,2013-12-01 23:28:00,
2013-12-01 18:30:00,51.9,37.2,30.07,SW,218,4.0,4.0,57,0.00,,---,0.00,VWS V14.01,2013-12-01 23:30:00,
2013-12-01 18:33:00,50.1,37.6,30.06,WSW,245,1.0,1.0,62,0.00,,---,0.00,VWS V14.01,2013-12-01 23:33:00,
2013-12-01 18:35:00,51.8,37.1,30.07,SSW,210,0.0,4.0,57,0.00,,---,0.00,VWS V14.01,2013-12-01 23:35:00,
2013-12-01 18:38:00,50.3,37.0,30.06,West,259,0.0,1.0,60,0.00,,---,0.00,VWS V14.01,2013-12-01 23:38:00,
2013-12-01 18:40:00,51.7,37.4,30.06,SW,224,0.0,1.0,58,0.00,,---,0.00,VWS V14.01,2013-12-01 23:40:00,
2013-12-01 18:43:00,50.0,38.3,30.06,West,266,0.0,0.0,64,0.00,,---,0.00,VWS V14.01,2013-12-01 23:43:00,
2013-12-01 18:45:00,51.5,37.2,30.06,SW,234,0.0,1.0,58,0.00,,---,0.00,VWS V14.01,2013-12-01 23:45:00,
2013-12-01 18:48:00,49.6,38.7,30.06,West,266,0.0,0.0,66,0.00,,---,0.00,VWS V14.01,2013-12-01 23:48:00,
2013-12-01 18:50:00,51.4,37.1,30.06,WSW,245,0.0,1.0,58,0.00,,---,0.00,VWS V14.01,2013-12-01 23:50:00,
2013-12-01 18:53:00,49.4,38.1,30.06,West,266,0.0,0.0,65,0.00,,---,0.00,VWS V14.01,2013-12-01 23:53:00,
2013-12-01 18:55:00,51.4,37.1,30.06,WSW,245,0.0,1.0,58,0.00,,---,0.00,VWS V14.01,2013-12-01 23:55:00,
2013-12-01 18:58:00,49.2,38.0,30.06,West,266,0.0,0.0,65,0.00,,---,0.00,VWS V14.01,2013-12-01 23:58:00,
2013-12-01 19:00:00,51.2,37.4,30.06,WSW,245,0.0,0.0,59,0.00,,---,0.00,VWS V14.01,2013-12-02 00:00:00,
2013-12-01 19:03:00,49.1,38.2,30.06,West,266,0.0,0.0,66,0.00,,---,0.00,VWS V14.01,2013-12-02 00:03:00,
2013-12-01 19:05:00,51.0,38.0,30.06,WSW,245,0.0,0.0,61,0.00,,---,0.00,VWS V14.01,2013-12-02 00:05:00,
2013-12-01 19:08:00,48.9,38.4,30.06,West,266,0.0,0.0,67,0.00,,---,0.00,VWS V14.01,2013-12-02 00:08:00,
2013-12-01 19:10:00,50.8,38.3,30.06,WSW,245,0.0,0.0,62,0.00,,---,0.00,VWS V14.01,2013-12-02 00:10:00,
2013-12-01 19:13:00,48.7,37.9,30.06,West,266,0.0,0.0,66,0.00,,---,0.00,VWS V14.01,2013-12-02 00:13:00,
2013-12-01 19:15:00,50.6,38.1,30.06,WSW,245,0.0,0.0,62,0.00,,---,0.00,VWS V14.01,2013-12-02 00:15:00,
2013-12-01 19:18:00,48.5,38.4,30.06,West,266,0.0,0.0,68,0.00,,---,0.00,VWS V14.01,2013-12-02 00:18:00,
2013-12-01 19:20:00,50.5,38.0,30.06,WSW,245,0.0,0.0,62,0.00,,---,0.00,VWS V14.01,2013-12-02 00:20:00,
2013-12-01 19:23:00,48.4,38.0,30.06,West,266,0.0,0.0,67,0.00,,---,0.00,VWS V14.01,2013-12-02 00:23:00,
2013-12-01 19:25:00,50.3,37.8,30.06,WSW,245,0.0,0.0,62,0.00,,---,0.00,VWS V14.01,2013-12-02 00:25:00,
2013-12-01 19:28:00,48.4,38.7,30.06,West,266,0.0,0.0,69,0.00,,---,0.00,VWS V14.01,2013-12-02 00:28:00,
2013-12-01 19:30:00,50.1,38.0,30.06,WSW,245,0.0,0.0,63,0.00,,---,0.00,VWS V14.01,2013-12-02 00:30:00,
2013-12-01 19:33:00,48.2,38.5,30.06,West,266,0.0,1.0,69,0.00,,---,0.00,VWS V14.01,2013-12-02 00:33:00,
2013-12-01 19:35:00,50.1,37.6,30.06,WSW,246,0.0,1.0,62,0.00,,---,0.00,VWS V14.01,2013-12-02 00:35:00,
2013-12-01 19:38:00,48.2,38.9,30.06,West,266,0.0,1.0,70,0.00,,---,0.00,VWS V14.01,2013-12-02 00:38:00,
2013-12-01 19:40:00,50.4,37.5,30.06,West,259,0.0,1.0,61,0.00,,---,0.00,VWS V14.01,2013-12-02 00:40:00,
2013-12-01 19:43:00,48.1,38.4,30.06,West,266,0.0,0.0,69,0.00,,---,0.00,VWS V14.01,2013-12-02 00:43:00,
2013-12-01 19:45:00,50.0,38.3,30.06,West,266,0.0,0.0,64,0.00,,---,0.00,VWS V14.01,2013-12-02 00:45:00,
2013-12-01 19:49:00,48.1,38.8,30.06,West,266,0.0,0.0,70,0.00,,---,0.00,VWS V14.01,2013-12-02 00:49:00,
2013-12-01 19:50:00,49.5,38.6,30.06,West,266,0.0,0.0,66,0.00,,---,0.00,VWS V14.01,2013-12-02 00:50:00,
2013-12-01 19:54:00,48.0,38.3,30.06,West,266,0.0,0.0,69,0.00,,---,0.00,VWS V14.01,2013-12-02 00:54:00,
2013-12-01 19:55:00,49.3,37.7,30.06,West,266,0.0,0.0,64,0.00,,---,0.00,VWS V14.01,2013-12-02 00:55:00,
2013-12-01 19:59:00,47.9,38.6,30.06,West,266,0.0,0.0,70,0.00,,---,0.00,VWS V14.01,2013-12-02 00:59:00,
2013-12-01 20:00:00,49.2,38.0,30.06,West,266,0.0,0.0,65,0.00,,---,0.00,VWS V14.01,2013-12-02 01:00:00,
2013-12-01 20:04:00,47.7,38.8,30.06,West,266,0.0,0.0,71,0.00,,---,0.00,VWS V14.01,2013-12-02 01:04:00,
2013-12-01 20:05:00,49.1,38.2,30.06,West,266,0.0,0.0,66,0.00,,---,0.00,VWS V14.01,2013-12-02 01:05:00,
2013-12-01 20:09:00,47.6,39.4,30.05,West,266,0.0,0.0,73,0.00,,---,0.00,VWS V14.01,2013-12-02 01:09:00,
2013-12-01 20:10:00,48.9,38.4,30.06,West,266,0.0,0.0,67,0.00,,---,0.00,VWS V14.01,2013-12-02 01:10:00,
2013-12-01 20:14:00,47.5,39.3,30.06,West,266,0.0,0.0,73,0.00,,---,0.00,VWS V14.01,2013-12-02 01:14:00,
2013-12-01 20:15:00,48.7,38.2,30.06,West,266,0.0,0.0,67,0.00,,---,0.00,VWS V14.01,2013-12-02 01:15:00,
2013-12-01 20:19:00,47.4,39.5,30.05,West,266,0.0,0.0,74,0.00,,---,0.00,VWS V14.01,2013-12-02 01:19:00,
2013-12-01 20:20:00,48.5,38.4,30.06,West,266,0.0,0.0,68,0.00,,---,0.00,VWS V14.01,2013-12-02 01:20:00,
2013-12-01 20:24:00,47.3,39.1,30.05,West,266,0.0,0.0,73,0.00,,---,0.00,VWS V14.01,2013-12-02 01:24:00,
2013-12-01 20:25:00,48.4,38.0,30.06,West,266,0.0,0.0,67,0.00,,---,0.00,VWS V14.01,2013-12-02 01:25:00,
2013-12-01 20:29:00,47.3,39.5,30.05,West,266,0.0,0.0,74,0.00,,---,0.00,VWS V14.01,2013-12-02 01:29:00,
2013-12-01 20:30:00,48.3,38.2,30.06,West,266,0.0,0.0,68,0.00,,---,0.00,VWS V14.01,2013-12-02 01:30:00,
2013-12-01 20:34:00,47.2,39.7,30.05,West,266,0.0,0.0,75,0.00,,---,0.00,VWS V14.01,2013-12-02 01:34:00,
2013-12-01 20:35:00,48.2,38.5,30.06,West,266,0.0,1.0,69,0.00,,---,0.00,VWS V14.01,2013-12-02 01:35:00,
2013-12-01 20:39:00,47.1,38.9,30.05,West,266,0.0,0.0,73,0.00,,---,0.00,VWS V14.01,2013-12-02 01:39:00,
2013-12-01 20:40:00,48.2,38.9,30.06,West,266,0.0,1.0,70,0.00,,---,0.00,VWS V14.01,2013-12-02 01:40:00,
2013-12-01 20:44:00,47.1,38.9,30.05,West,266,0.0,0.0,73,0.00,,---,0.00,VWS V14.01,2013-12-02 01:44:00,
2013-12-01 20:45:00,48.1,38.8,30.06,West,266,0.0,0.0,70,0.00,,---,0.00,VWS V14.01,2013-12-02 01:45:00,
2013-12-01 20:49:00,47.1,38.9,30.05,West,266,0.0,0.0,73,0.00,,---,0.00,VWS V14.01,2013-12-02 01:49:00,
2013-12-01 20:50:00,48.0,38.7,30.06,West,266,0.0,0.0,70,0.00,,---,0.00,VWS V14.01,2013-12-02 01:50:00,
2013-12-01 20:54:00,47.1,38.9,30.05,West,266,0.0,0.0,73,0.00,,---,0.00,VWS V14.01,2013-12-02 01:54:00,
2013-12-01 20:55:00,48.0,38.3,30.06,West,266,0.0,0.0,69,0.00,,---,0.00,VWS V14.01,2013-12-02 01:55:00,
2013-12-01 20:59:00,47.1,38.9,30.05,West,266,0.0,0.0,73,0.00,,---,0.00,VWS V14.01,2013-12-02 01:59:00,
2013-12-01 21:00:00,47.9,38.6,30.06,West,266,0.0,0.0,70,0.00,,---,0.00,VWS V14.01,2013-12-02 02:00:00,
2013-12-01 21:04:00,47.1,39.6,30.05,West,266,0.0,0.0,75,0.00,,---,0.00,VWS V14.01,2013-12-02 02:04:00,
2013-12-01 21:05:00,47.7,38.8,30.06,West,266,0.0,0.0,71,0.00,,---,0.00,VWS V14.01,2013-12-02 02:05:00,
2013-12-01 21:09:00,47.0,39.8,30.04,West,266,0.0,0.0,76,0.00,,---,0.00,VWS V14.01,2013-12-02 02:09:00,
2013-12-01 21:10:00,47.6,39.4,30.05,West,266,0.0,0.0,73,0.00,,---,0.00,VWS V14.01,2013-12-02 02:10:00,
2013-12-01 21:14:00,46.9,40.1,30.04,West,266,0.0,0.0,77,0.00,,---,0.00,VWS V14.01,2013-12-02 02:14:00,
2013-12-01 21:15:00,47.5,39.3,30.06,West,266,0.0,0.0,73,0.00,,---,0.00,VWS V14.01,2013-12-02 02:15:00,
2013-12-01 21:19:00,46.8,39.7,30.05,West,266,0.0,0.0,76,0.00,,---,0.00,VWS V14.01,2013-12-02 02:19:00,
2013-12-01 21:20:00,47.4,39.5,30.05,West,266,0.0,0.0,74,0.00,,---,0.00,VWS V14.01,2013-12-02 02:20:00,
2013-12-01 21:24:00,46.7,39.2,30.04,West,266,0.0,0.0,75,0.00,,---,0.00,VWS V14.01,2013-12-02 02:24:00,
2013-12-01 21:25:00,47.4,39.2,30.05,West,266,0.0,0.0,73,0.00,,---,0.00,VWS V14.01,2013-12-02 02:25:00,
2013-12-01 21:29:00,46.7,38.9,30.04,West,266,0.0,0.0,74,0.00,,---,0.00,VWS V14.01,2013-12-02 02:29:00,
2013-12-01 21:30:00,47.3,39.5,30.05,West,266,0.0,0.0,74,0.00,,---,0.00,VWS V14.01,2013-12-02 02:30:00,
2013-12-01 21:34:00,46.9,39.1,30.04,West,266,0.0,0.0,74,0.00,,---,0.00,VWS V14.01,2013-12-02 02:34:00,
2013-12-01 21:35:00,47.2,39.3,30.05,West,266,0.0,0.0,74,0.00,,---,0.00,VWS V14.01,2013-12-02 02:35:00,
2013-12-01 21:39:00,46.8,39.7,30.04,West,266,0.0,0.0,76,0.00,,---,0.00,VWS V14.01,2013-12-02 02:39:00,
2013-12-01 21:40:00,47.1,38.9,30.05,West,266,0.0,0.0,73,0.00,,---,0.00,VWS V14.01,2013-12-02 02:40:00,
2013-12-01 21:44:00,46.8,39.3,30.04,West,266,0.0,0.0,75,0.00,,---,0.00,VWS V14.01,2013-12-02 02:44:00,
2013-12-01 21:45:00,47.1,38.9,30.05,West,266,0.0,0.0,73,0.00,,---,0.00,VWS V14.01,2013-12-02 02:45:00,
2013-12-01 21:49:00,46.8,39.3,30.03,West,266,0.0,0.0,75,0.00,,---,0.00,VWS V14.01,2013-12-02 02:49:00,
2013-12-01 21:50:00,47.1,38.9,30.05,West,266,0.0,0.0,73,0.00,,---,0.00,VWS V14.01,2013-12-02 02:50:00,
2013-12-01 21:54:00,46.7,39.5,30.03,West,266,0.0,0.0,76,0.00,,---,0.00,VWS V14.01,2013-12-02 02:54:00,
2013-12-01 21:55:00,47.1,38.9,30.05,West,266,0.0,0.0,73,0.00,,---,0.00,VWS V14.01,2013-12-02 02:55:00,
2013-12-01 21:59:00,46.6,39.1,30.03,West,266,0.0,0.0,75,0.00,,---,0.00,VWS V14.01,2013-12-02 02:59:00,
2013-12-01 22:00:00,47.0,38.8,30.05,West,266,0.0,0.0,73,0.00,,---,0.00,VWS V14.01,2013-12-02 03:00:00,
2013-12-01 22:04:00,46.6,38.8,30.03,West,266,0.0,0.0,74,0.00,,---,0.00,VWS V14.01,2013-12-02 03:04:00,
2013-12-01 22:05:00,47.1,39.6,30.05,West,266,0.0,0.0,75,0.00,,---,0.00,VWS V14.01,2013-12-02 03:05:00,
2013-12-01 22:09:00,46.8,39.0,30.03,West,265,0.0,1.0,74,0.00,,---,0.00,VWS V14.01,2013-12-02 03:09:00,
2013-12-01 22:10:00,46.9,39.7,30.04,West,266,0.0,0.0,76,0.00,,---,0.00,VWS V14.01,2013-12-02 03:10:00,
2013-12-01 22:14:00,46.8,39.0,30.03,West,265,1.0,1.0,74,0.00,,---,0.00,VWS V14.01,2013-12-02 03:14:00,
2013-12-01 22:15:00,46.9,40.1,30.04,West,266,0.0,0.0,77,0.00,,---,0.00,VWS V14.01,2013-12-02 03:15:00,
2013-12-01 22:19:00,46.8,39.7,30.03,West,265,0.0,0.0,76,0.00,,---,0.00,VWS V14.01,2013-12-02 03:19:00,
2013-12-01 22:20:00,46.8,39.7,30.05,West,266,0.0,0.0,76,0.00,,---,0.00,VWS V14.01,2013-12-02 03:20:00,
2013-12-01 22:24:00,46.7,39.2,30.03,West,263,0.0,1.0,75,0.00,,---,0.00,VWS V14.01,2013-12-02 03:24:00,
2013-12-01 22:29:00,46.7,39.5,30.03,WSW,257,0.0,0.0,76,0.00,,---,0.00,VWS V14.01,2013-12-02 03:29:00,
2013-12-01 22:34:00,46.8,39.7,30.03,WSW,257,0.0,1.0,76,0.00,,---,0.00,VWS V14.01,2013-12-02 03:34:00,
2013-12-01 22:35:00,46.9,39.1,30.04,West,266,0.0,0.0,74,0.00,,---,0.00,VWS V14.01,2013-12-02 03:35:00,
2013-12-01 22:39:00,46.7,39.2,30.02,WSW,257,0.0,0.0,75,0.00,,---,0.00,VWS V14.01,2013-12-02 03:39:00,
2013-12-01 22:40:00,46.8,39.3,30.04,West,266,0.0,0.0,75,0.00,,---,0.00,VWS V14.01,2013-12-02 03:40:00,
2013-12-01 22:44:00,46.7,39.2,30.02,WSW,257,0.0,0.0,75,0.00,,---,0.00,VWS V14.01,2013-12-02 03:44:00,
2013-12-01 22:45:00,46.8,39.7,30.04,West,266,0.0,0.0,76,0.00,,---,0.00,VWS V14.01,2013-12-02 03:45:00,
2013-12-01 22:49:00,46.8,39.0,30.02,SSW,207,0.0,1.0,74,0.00,,---,0.00,VWS V14.01,2013-12-02 03:49:00,
2013-12-01 22:54:00,47.1,38.5,30.02,WSW,240,0.0,1.0,72,0.00,,---,0.00,VWS V14.01,2013-12-02 03:54:00,
2013-12-01 22:55:00,46.7,39.5,30.03,West,266,0.0,0.0,76,0.00,,---,0.00,VWS V14.01,2013-12-02 03:55:00,
2013-12-01 22:59:00,47.3,39.1,30.02,WSW,237,0.0,1.0,73,0.00,,---,0.00,VWS V14.01,2013-12-02 03:59:00,
2013-12-01 23:00:00,46.6,39.1,30.03,West,266,0.0,0.0,75,0.00,,---,0.00,VWS V14.01,2013-12-02 04:00:00,
2013-12-01 23:04:00,47.5,39.3,30.02,WSW,237,0.0,0.0,73,0.00,,---,0.00,VWS V14.01,2013-12-02 04:04:00,
2013-12-01 23:09:00,47.3,39.8,30.02,WSW,237,0.0,0.0,75,0.00,,---,0.00,VWS V14.01,2013-12-02 04:09:00,
2013-12-01 23:10:00,46.8,39.0,30.03,West,265,0.0,1.0,74,0.00,,---,0.00,VWS V14.01,2013-12-02 04:10:00,
2013-12-01 23:14:00,47.2,40.0,30.02,WSW,237,0.0,0.0,76,0.00,,---,0.00,VWS V14.01,2013-12-02 04:14:00,
2013-12-01 23:15:00,46.8,39.0,30.03,West,265,0.0,1.0,74,0.00,,---,0.00,VWS V14.01,2013-12-02 04:15:00,
2013-12-01 23:19:00,47.1,40.3,30.02,WSW,237,0.0,0.0,77,0.00,,---,0.00,VWS V14.01,2013-12-02 04:19:00,
2013-12-01 23:20:00,46.8,39.7,30.03,West,265,0.0,0.0,76,0.00,,---,0.00,VWS V14.01,2013-12-02 04:20:00,
2013-12-01 23:24:00,46.9,40.1,30.01,WSW,237,0.0,0.0,77,0.00,,---,0.00,VWS V14.01,2013-12-02 04:24:00,
2013-12-01 23:25:00,46.7,39.2,30.03,West,263,0.0,1.0,75,0.00,,---,0.00,VWS V14.01,2013-12-02 04:25:00,
2013-12-01 23:29:00,46.9,40.1,30.01,WSW,237,0.0,0.0,77,0.00,,---,0.00,VWS V14.01,2013-12-02 04:29:00,
2013-12-01 23:34:00,46.9,39.7,30.01,WSW,237,0.0,0.0,76,0.00,,---,0.00,VWS V14.01,2013-12-02 04:34:00,
2013-12-01 23:35:00,46.8,39.7,30.03,WSW,257,0.0,1.0,76,0.00,,---,0.00,VWS V14.01,2013-12-02 04:35:00,
2013-12-01 23:39:00,46.9,39.4,30.01,WSW,237,0.0,0.0,75,0.00,,---,0.00,VWS V14.01,2013-12-02 04:39:00,
2013-12-01 23:44:00,46.9,39.4,30.01,WSW,237,0.0,0.0,75,0.00,,---,0.00,VWS V14.01,2013-12-02 04:44:00,
2013-12-01 23:49:00,46.9,39.7,30.01,WSW,237,0.0,0.0,76,0.00,,---,0.00,VWS V14.01,2013-12-02 04:49:00,
2013-12-01 23:50:00,46.8,39.0,30.02,SSW,207,0.0,1.0,74,0.00,,---,0.00,VWS V14.01,2013-12-02 04:50:00,
2013-12-01 23:54:00,47.0,39.5,30.01,WSW,237,0.0,0.0,75,0.00,,---,0.00,VWS V14.01,2013-12-02 04:54:00,
2013-12-01 23:55:00,47.1,38.5,30.02,WSW,240,0.0,1.0,72,0.00,,---,0.00,VWS V14.01,2013-12-02 04:55:00,
2013-12-01 23:59:00,47.1,39.9,30.00,WSW,237,0.0,0.0,76,0.00,,---,0.00,VWS V14.01,2013-12-02 04:59:00,